createdAt,value
2019-03-05T00:00:45.361Z,5.40
2019-03-05T00:03:14.875Z,5.40
2019-03-05T00:05:44.504Z,5.40
2019-03-05T00:08:14.167Z,5.30
2019-03-05T00:10:43.754Z,5.30
2019-03-05T00:13:13.387Z,5.30
2019-03-05T00:15:43.660Z,5.30
2019-03-05T00:18:14.074Z,5.30
2019-03-05T00:20:43.681Z,5.30
2019-03-05T00:23:14.005Z,5.20
2019-03-05T00:25:43.988Z,5.20
2019-03-05T00:28:25.577Z,5.20
2019-03-05T00:31:11.672Z,5.20
2019-03-05T00:34:19.557Z,5.20
2019-03-05T00:36:56.548Z,5.20
2019-03-05T00:39:51.236Z,5.20
2019-03-05T00:42:47.828Z,5.20
2019-03-05T00:45:40.041Z,5.20
2019-03-05T00:48:50.520Z,5.20
2019-03-05T00:52:16.234Z,5.20
2019-03-05T00:55:41.925Z,5.20
2019-03-05T00:58:22.536Z,5.20
2019-03-05T01:01:39.302Z,5.20
2019-03-05T01:04:46.953Z,5.20
2019-03-05T01:07:16.654Z,5.20
2019-03-05T01:09:46.152Z,5.20
2019-03-05T01:12:16.586Z,5.20
2019-03-05T01:14:46.680Z,5.20
2019-03-05T01:17:16.202Z,5.20
2019-03-05T01:19:45.687Z,5.10
2019-03-05T01:22:15.235Z,5.20
2019-03-05T01:24:45.196Z,5.20
2019-03-05T01:27:14.747Z,5.20
2019-03-05T01:29:44.273Z,5.20
2019-03-05T01:32:37.276Z,5.20
2019-03-05T01:35:39.583Z,5.10
2019-03-05T01:38:11.474Z,5.10
2019-03-05T01:40:44.424Z,5.10
2019-03-05T01:43:13.943Z,5.10
2019-03-05T01:45:43.479Z,5.10
2019-03-05T01:48:13.003Z,5.10
2019-03-05T01:50:42.833Z,5.00
2019-03-05T01:53:12.367Z,5.10
2019-03-05T01:55:41.943Z,5.00
2019-03-05T01:58:11.427Z,5.00
2019-03-05T02:00:40.984Z,5.00
2019-03-05T02:03:10.520Z,5.00
2019-03-05T02:05:40.051Z,4.90
2019-03-05T02:08:09.581Z,4.90
2019-03-05T02:10:39.121Z,4.90
2019-03-05T02:13:08.633Z,4.90
2019-03-05T02:15:38.103Z,4.90
2019-03-05T02:18:07.578Z,4.90
2019-03-05T02:20:37.098Z,4.80
2019-03-05T02:23:13.649Z,4.80
2019-03-05T02:25:59.462Z,4.70
2019-03-05T02:29:09.341Z,4.70
2019-03-05T02:32:28.183Z,4.70
2019-03-05T02:35:46.229Z,4.70
2019-03-05T02:38:41.889Z,4.70
2019-03-05T02:41:57.287Z,4.60
2019-03-05T02:45:19.140Z,4.60
2019-03-05T02:48:24.580Z,4.60
2019-03-05T02:51:35.392Z,4.60
2019-03-05T02:54:54.072Z,4.60
2019-03-05T02:57:21.901Z,4.60
2019-03-05T02:59:51.443Z,4.50
2019-03-05T03:02:39.865Z,4.50
2019-03-05T03:05:23.383Z,4.50
2019-03-05T03:07:53.479Z,4.50
2019-03-05T03:10:24.863Z,4.40
2019-03-05T03:12:55.055Z,4.30
2019-03-05T03:15:24.600Z,4.30
2019-03-05T03:17:54.194Z,4.30
2019-03-05T03:20:24.344Z,4.30
2019-03-05T03:22:53.963Z,4.20
2019-03-05T03:25:24.161Z,4.20
2019-03-05T03:27:54.191Z,4.10
2019-03-05T03:30:25.224Z,4.10
2019-03-05T03:32:54.742Z,4.00
2019-03-05T03:35:24.672Z,4.00
2019-03-05T03:37:54.224Z,4.00
2019-03-05T03:40:24.675Z,3.90
2019-03-05T03:42:54.928Z,3.90
2019-03-05T03:45:25.835Z,3.90
2019-03-05T03:47:55.547Z,3.90
2019-03-05T03:50:25.383Z,3.90
2019-03-05T03:52:55.062Z,3.80
2019-03-05T03:55:24.811Z,3.80
2019-03-05T03:57:58.280Z,3.90
2019-03-05T04:00:28.386Z,3.80
2019-03-05T04:02:58.086Z,3.80
2019-03-05T04:05:27.850Z,3.80
2019-03-05T04:07:57.568Z,3.80
2019-03-05T04:10:27.298Z,3.80
2019-03-05T04:12:56.987Z,3.80
2019-03-05T04:15:26.895Z,3.80
2019-03-05T04:17:57.997Z,3.80
2019-03-05T04:23:31.952Z,3.70
2019-03-05T04:26:02.350Z,3.70
2019-03-05T04:28:32.894Z,3.70
2019-03-05T04:31:04.651Z,3.70
2019-03-05T04:33:34.642Z,3.70
2019-03-05T04:36:04.433Z,3.70
2019-03-05T04:38:34.820Z,3.70
2019-03-05T04:41:04.852Z,3.70
2019-03-05T04:43:37.134Z,3.70
2019-03-05T04:46:26.693Z,3.70
2019-03-05T04:49:43.200Z,3.70
2019-03-05T04:52:21.205Z,3.70
2019-03-05T04:54:57.292Z,3.60
2019-03-05T04:57:32.366Z,3.60
2019-03-05T05:00:33.440Z,3.60
2019-03-05T05:03:42.121Z,3.50
2019-03-05T05:06:17.314Z,3.50
2019-03-05T05:08:49.979Z,3.50
2019-03-05T05:11:22.403Z,3.50
2019-03-05T05:17:33.285Z,3.40
2019-03-05T05:23:50.217Z,3.20
2019-03-05T05:29:59.247Z,3.20
2019-03-05T05:33:20.720Z,3.20
2019-03-05T05:37:19.261Z,3.20
